Time;durP1;ratioP1;P1;durP2;ratioP2;P2;SDS_P1;SDS_P2;PMS_P1;PMS_P2;Temp;Humidity;BMP_temperature;BMP_pressure;BME280_temperature;BME280_humidity;BME280_pressure;Samples;Min_cycle;Max_cycle;Signal;HPM_P1;HPM_P2
2023/08/17 00:00:13;;;;;;;8.68;7.20;;;20.40;99.90;;;22.07;70.92;97790.63;5039533;28;20041;-51
2023/08/17 00:02:41;;;;;;;7.78;6.75;;;20.40;99.90;;;22.07;70.61;97790.63;5045780;28;20053;-53
2023/08/17 00:05:09;;;;;;;8.45;7.18;;;20.40;99.90;;;22.08;70.54;97794.97;5045895;28;20346;-52
2023/08/17 00:07:37;;;;;;;15.75;8.13;;;20.40;99.90;;;22.06;70.59;97792.50;5042126;28;20045;-52
2023/08/17 00:10:05;;;;;;;8.82;7.75;;;20.30;99.90;;;21.97;70.36;97788.47;5042150;28;20041;-55
2023/08/17 00:12:33;;;;;;;11.95;7.78;;;20.30;99.90;;;21.95;70.70;97788.72;5043650;28;20045;-53
2023/08/17 00:15:00;;;;;;;9.80;7.47;;;20.30;99.90;;;21.99;70.57;97789.06;5045783;28;20044;-54
2023/08/17 00:17:28;;;;;;;8.95;7.22;;;20.30;99.90;;;21.98;70.29;97790.97;5043349;28;20520;-51
2023/08/17 00:19:55;;;;;;;9.45;8.23;;;20.30;99.90;;;22.02;70.50;97778.59;5033477;28;20083;-53
2023/08/17 00:22:23;;;;;;;9.77;7.15;;;20.30;99.90;;;22.09;70.53;97780.38;5041879;28;20511;-51
2023/08/17 00:24:51;;;;;;;11.88;7.43;;;20.40;99.90;;;22.06;70.33;97787.06;5045812;28;20044;-53
2023/08/17 00:27:18;;;;;;;8.50;7.57;;;20.40;99.90;;;22.05;70.23;97788.16;5045422;28;20489;-55
2023/08/17 00:29:46;;;;;;;9.68;7.63;;;20.30;99.90;;;22.07;70.06;97779.78;5040784;28;20081;-52
2023/08/17 00:32:13;;;;;;;9.95;7.68;;;20.30;99.90;;;22.08;69.91;97786.84;5041086;28;20041;-51
2023/08/17 00:34:41;;;;;;;9.02;6.97;;;20.30;99.90;;;22.05;69.86;97777.31;5041197;28;20057;-54
2023/08/17 00:37:09;;;;;;;9.13;7.50;;;20.30;99.90;;;22.02;69.75;97780.47;5041868;28;20068;-52
2023/08/17 00:39:36;;;;;;;8.02;6.60;;;20.30;99.90;;;22.03;69.54;97771.28;5042739;28;20057;-52
2023/08/17 00:42:04;;;;;;;8.02;6.60;;;20.30;99.90;;;21.98;69.39;97774.69;5043440;28;20048;-53
2023/08/17 00:44:32;;;;;;;10.10;6.20;;;20.30;99.90;;;21.99;69.56;97768.22;5042922;28;20060;-52
2023/08/17 00:47:00;;;;;;;8.82;7.70;;;20.30;99.90;;;22.02;69.35;97765.03;5040647;28;20041;-51
2023/08/17 00:49:27;;;;;;;7.82;6.80;;;20.20;99.90;;;22.02;69.49;97761.50;5042019;28;20050;-54
2023/08/17 00:51:56;;;;;;;7.80;7.00;;;20.20;99.90;;;22.01;69.60;97765.28;5039303;28;20064;-55
2023/08/17 00:54:29;;;;;;;7.90;6.05;;;20.30;99.90;;;21.99;69.28;97765.50;5041271;28;20044;-55
2023/08/17 00:56:57;;;;;;;9.63;6.28;;;20.30;99.90;;;22.00;69.65;97764.47;5017104;28;20050;-54
2023/08/17 00:59:26;;;;;;;7.82;6.20;;;20.20;99.90;;;22.02;69.60;97769.63;5040576;28;20053;-55
2023/08/17 01:01:54;;;;;;;7.35;6.05;;;20.30;99.90;;;22.05;69.44;97771.06;5032257;28;20087;-52
2023/08/17 01:04:22;;;;;;;7.18;6.22;;;20.30;99.90;;;22.00;68.90;97769.03;5040200;28;20512;-54
2023/08/17 01:06:50;;;;;;;8.65;6.28;;;20.20;99.90;;;21.96;69.09;97765.94;5042326;28;20307;-52
2023/08/17 01:09:19;;;;;;;7.72;6.32;;;20.20;99.90;;;21.94;69.41;97761.81;5036358;28;20413;-51
2023/08/17 01:12:18;;;;;;;10.10;7.00;;;20.20;99.90;;;21.91;69.51;97763.13;5042257;28;20045;-54
2023/08/17 01:14:50;;;;;;;9.57;6.45;;;20.20;99.90;;;21.90;69.60;97769.59;5044984;28;20067;-62
2023/08/17 01:17:54;;;;;;;8.18;6.97;;;20.20;99.90;;;21.92;69.79;97763.94;5039904;28;20057;-62
2023/08/17 01:20:24;;;;;;;12.00;7.00;;;20.20;99.90;;;21.94;69.49;97765.34;5038877;28;20045;-62
2023/08/17 01:22:56;;;;;;;8.30;7.05;;;20.20;99.90;;;21.87;69.59;97764.66;5042449;28;20052;-62
2023/08/17 01:25:24;;;;;;;8.27;6.75;;;20.10;99.90;;;21.91;69.64;97763.13;5043104;28;20049;-62
2023/08/17 01:27:52;;;;;;;9.40;6.15;;;20.20;99.90;;;21.92;69.64;97759.34;5055797;28;20046;-62
2023/08/17 01:30:20;;;;;;;9.18;7.25;;;20.20;99.90;;;21.91;69.62;97767.72;5039736;28;20056;-62
2023/08/17 01:32:57;;;;;;;11.30;7.22;;;20.20;99.90;;;21.93;69.70;97766.44;5041575;28;20412;-62
2023/08/17 01:36:09;;;;;;;7.70;6.50;;;20.10;99.90;;;21.98;70.04;97763.00;5019195;28;20052;-62
2023/08/17 01:38:39;;;;;;;9.05;6.78;;;20.20;99.90;;;22.03;69.53;97761.25;5003255;28;20504;-62
2023/08/17 01:41:15;;;;;;;8.95;6.50;;;20.30;99.90;;;22.03;69.51;97761.25;5042373;28;20041;-62
2023/08/17 01:43:45;;;;;;;7.45;6.63;;;20.30;99.90;;;22.00;69.43;97761.75;5018690;28;20052;-62
2023/08/17 01:46:16;;;;;;;9.82;6.60;;;20.20;99.90;;;22.00;69.43;97759.03;5044279;28;20040;-62
2023/08/17 01:48:46;;;;;;;10.45;7.25;;;20.20;99.90;;;22.02;69.38;97756.91;5040199;28;20048;-62
2023/08/17 01:51:20;;;;;;;8.45;6.70;;;20.30;99.90;;;22.02;69.66;97764.19;5039037;28;20045;-62
2023/08/17 01:53:48;;;;;;;8.98;6.22;;;20.30;99.90;;;22.03;69.13;97763.97;5042290;28;20041;-62
2023/08/17 01:56:16;;;;;;;8.45;7.15;;;20.30;99.90;;;22.01;69.23;97757.97;5043828;28;20408;-62
2023/08/17 01:58:45;;;;;;;7.97;6.40;;;20.30;99.90;;;21.99;69.51;97751.94;5024084;28;20044;-62
2023/08/17 02:01:13;;;;;;;8.55;6.75;;;20.30;99.90;;;21.90;69.78;97749.81;5038759;28;20057;-62
2023/08/17 02:03:40;;;;;;;9.80;6.60;;;20.20;99.90;;;21.90;69.54;97763.34;5055954;28;20049;-62
2023/08/17 02:06:08;;;;;;;10.95;7.88;;;20.20;99.90;;;21.92;69.80;97758.53;5042240;28;20056;-62
2023/08/17 02:08:38;;;;;;;9.95;7.55;;;20.20;99.90;;;21.93;69.69;97752.88;5041043;28;20056;-62
2023/08/17 02:11:05;;;;;;;8.35;6.65;;;20.20;99.90;;;21.95;69.89;97756.19;5039777;28;20409;-62
2023/08/17 02:13:33;;;;;;;9.65;6.97;;;20.30;99.90;;;22.01;69.71;97746.31;5039857;28;20056;-62
2023/08/17 02:16:04;;;;;;;10.23;6.70;;;20.40;99.90;;;22.07;69.71;97741.84;5014539;28;20045;-62
2023/08/17 02:18:34;;;;;;;9.48;7.57;;;20.40;99.90;;;22.08;69.68;97740.75;5038418;28;20058;-62
2023/08/17 02:21:02;;;;;;;8.35;6.63;;;20.40;99.90;;;22.08;69.46;97736.19;5032048;28;20288;-63
2023/08/17 02:23:29;;;;;;;9.20;7.03;;;20.30;99.90;;;22.14;69.57;97740.66;5038700;28;20049;-62
2023/08/17 02:25:57;;;;;;;10.52;7.88;;;20.40;99.90;;;22.17;69.13;97739.38;5041340;28;20040;-63
2023/08/17 02:28:24;;;;;;;14.20;7.72;;;20.50;99.90;;;22.17;69.34;97736.66;5041959;28;20037;-62
2023/08/17 02:30:59;;;;;;;9.30;7.78;;;20.40;99.90;;;22.17;69.18;97728.53;5038727;28;20053;-62
2023/08/17 02:33:28;;;;;;;9.02;6.97;;;20.40;99.90;;;22.19;69.30;97727.22;5038036;28;20417;-62
2023/08/17 02:35:55;;;;;;;8.45;6.72;;;20.50;99.90;;;22.21;69.35;97719.69;5040949;28;20051;-62
2023/08/17 02:38:23;;;;;;;7.70;6.93;;;20.60;99.90;;;22.26;68.91;97712.78;5041406;28;20044;-62
2023/08/17 02:40:51;;;;;;;9.32;6.88;;;20.60;99.90;;;22.27;69.03;97714.41;5039268;28;20055;-62
2023/08/17 02:43:18;;;;;;;7.80;6.68;;;20.60;99.90;;;22.29;69.10;97713.13;5038113;28;20052;-62
2023/08/17 02:45:52;;;;;;;7.53;6.53;;;20.60;99.90;;;22.26;68.97;97720.91;5039959;28;20505;-62
2023/08/17 02:48:20;;;;;;;13.38;7.80;;;20.50;99.90;;;22.26;68.96;97707.38;5041085;28;20045;-62
2023/08/17 02:50:48;;;;;;;8.02;6.97;;;20.50;99.90;;;22.28;69.08;97708.78;5039360;28;20053;-62
2023/08/17 02:53:16;;;;;;;11.65;7.65;;;20.60;99.90;;;22.30;69.05;97700.41;5040184;28;20048;-62
2023/08/17 02:55:43;;;;;;;10.20;7.47;;;20.60;99.90;;;22.31;68.86;97708.28;5038948;28;20060;-62
2023/08/17 02:58:11;;;;;;;8.95;7.13;;;20.60;99.90;;;22.34;68.73;97701.59;5042540;28;20044;-62
2023/08/17 03:00:39;;;;;;;13.40;7.03;;;20.70;99.90;;;22.35;68.92;97706.78;5040489;28;20053;-62
2023/08/17 03:03:06;;;;;;;10.10;7.88;;;20.70;99.90;;;22.35;68.86;97701.34;5039356;28;20037;-62
2023/08/17 03:05:34;;;;;;;10.98;7.22;;;20.70;99.90;;;22.36;68.71;97694.84;5038914;28;20049;-62
2023/08/17 03:08:02;;;;;;;13.52;8.73;;;20.70;99.90;;;22.36;68.81;97697.56;5037777;28;20045;-62
2023/08/17 03:10:31;;;;;;;12.40;8.90;;;20.70;99.90;;;22.38;69.19;97691.91;5037048;28;20050;-62
2023/08/17 03:12:59;;;;;;;11.32;9.85;;;20.60;99.90;;;22.39;68.82;97694.41;5043768;28;20064;-62
2023/08/17 03:15:27;;;;;;;13.82;9.80;;;20.70;99.90;;;22.38;68.89;97690.00;5046863;28;20512;-62
2023/08/17 03:17:54;;;;;;;13.73;9.80;;;20.70;99.90;;;22.38;68.79;97687.31;5042968;28;20041;-62
2023/08/17 03:20:22;;;;;;;15.60;9.32;;;20.70;99.90;;;22.38;68.91;97684.59;5042498;28;20417;-62
2023/08/17 03:22:50;;;;;;;16.60;10.32;;;20.70;99.90;;;22.40;69.33;97687.88;5027232;28;20064;-62
2023/08/17 03:25:19;;;;;;;15.57;10.15;;;20.70;99.90;;;22.42;69.25;97690.38;5046829;28;20045;-63
2023/08/17 03:27:46;;;;;;;15.63;10.18;;;20.80;99.90;;;22.42;69.32;97690.38;5043973;28;20045;-62
2023/08/17 03:30:14;;;;;;;16.58;11.18;;;20.70;99.90;;;22.40;69.31;97689.78;5042049;28;20425;-63
2023/08/17 03:32:42;;;;;;;21.80;12.25;;;20.70;99.90;;;22.36;69.67;97689.44;5040878;28;20045;-62
2023/08/17 03:35:10;;;;;;;21.65;11.73;;;20.60;99.90;;;22.34;69.68;97685.31;5042190;28;20144;-63
2023/08/17 03:37:38;;;;;;;19.27;12.48;;;20.60;99.90;;;22.34;69.88;97685.31;5033741;28;20052;-63
2023/08/17 03:40:06;;;;;;;20.63;11.15;;;20.60;99.90;;;22.32;69.67;97685.53;5045042;28;20496;-63
2023/08/17 03:42:34;;;;;;;21.65;12.57;;;20.60;99.90;;;22.29;69.84;97682.47;5045247;28;20060;-62
2023/08/17 03:45:03;;;;;;;20.50;12.63;;;20.50;99.90;;;22.27;70.08;97685.41;5043837;28;20053;-63
2023/08/17 03:47:31;;;;;;;24.35;12.60;;;20.50;99.90;;;22.27;70.45;97688.13;5040192;28;20404;-62
2023/08/17 03:49:59;;;;;;;23.13;12.38;;;20.50;99.90;;;22.27;70.66;97693.53;5042202;28;20053;-63
2023/08/17 03:52:26;;;;;;;23.42;12.20;;;20.50;99.90;;;22.26;70.59;97699.22;5041713;28;20496;-63
2023/08/17 03:54:54;;;;;;;27.75;14.23;;;20.50;99.90;;;22.24;70.53;97702.13;5043477;28;20058;-62
2023/08/17 03:57:22;;;;;;;24.52;14.38;;;20.50;99.90;;;22.23;70.83;97697.75;5046471;28;20507;-62
2023/08/17 03:59:49;;;;;;;25.05;12.75;;;20.50;99.90;;;22.26;71.25;97697.34;5036180;28;20045;-62
2023/08/17 04:02:17;;;;;;;29.13;14.02;;;20.50;99.90;;;22.26;71.34;97702.75;5033789;28;20042;-62
2023/08/17 04:04:45;;;;;;;25.90;14.13;;;20.60;99.90;;;22.28;70.93;97697.91;5034433;28;20057;-62
2023/08/17 04:07:22;;;;;;;26.08;13.30;;;20.60;99.90;;;22.30;71.03;97706.66;5033006;28;20046;-62
2023/08/17 04:09:52;;;;;;;28.23;12.60;;;20.60;99.90;;;22.34;71.07;97709.72;5032066;28;20049;-63
2023/08/17 04:12:20;;;;;;;32.10;14.50;;;20.60;99.90;;;22.34;71.16;97710.53;5032719;28;20041;-62
2023/08/17 04:14:48;;;;;;;33.65;16.40;;;20.70;99.90;;;22.35;71.36;97709.50;5041103;28;20057;-62
2023/08/17 04:17:15;;;;;;;28.35;15.70;;;20.70;99.90;;;22.36;71.40;97710.31;5032420;28;20056;-62
2023/08/17 04:19:43;;;;;;;28.80;15.57;;;20.70;99.90;;;22.37;71.48;97703.81;5032914;28;20049;-62
2023/08/17 04:22:10;;;;;;;30.48;17.42;;;20.70;99.90;;;22.41;71.20;97710.41;5032519;28;20084;-62
2023/08/17 04:24:39;;;;;;;31.17;15.30;;;20.70;99.90;;;22.40;71.26;97715.00;5032174;28;20053;-62
2023/08/17 04:27:07;;;;;;;27.35;16.58;;;20.80;99.90;;;22.41;71.36;97713.97;5032351;28;20532;-62
2023/08/17 04:29:36;;;;;;;32.05;15.57;;;20.70;99.90;;;22.43;71.47;97716.44;5032338;28;20049;-62
2023/08/17 04:32:04;;;;;;;25.83;14.43;;;20.70;99.90;;;22.43;71.55;97727.31;5015223;28;20086;-51
2023/08/17 04:34:31;;;;;;;28.05;16.23;;;20.70;99.90;;;22.46;71.73;97726.00;5033982;28;20524;-52
2023/08/17 04:36:59;;;;;;;32.15;15.73;;;20.80;99.90;;;22.48;71.45;97721.16;5024091;28;20053;-50
2023/08/17 04:39:27;;;;;;;25.95;16.92;;;20.80;99.90;;;22.48;71.68;97719.25;5032889;28;20053;-54
2023/08/17 04:41:56;;;;;;;25.75;15.07;;;20.80;99.90;;;22.48;71.65;97724.69;5031739;28;20060;-54
2023/08/17 04:44:29;;;;;;;23.48;15.30;;;20.80;99.90;;;22.50;71.46;97719.84;5032148;28;20057;-50
2023/08/17 04:46:58;;;;;;;25.63;14.90;;;20.80;99.90;;;22.52;71.57;97722.31;5031718;28;20050;-52
2023/08/17 04:49:26;;;;;;;23.58;13.68;;;20.90;99.90;;;22.55;71.38;97730.00;5031170;28;20060;-52
2023/08/17 04:51:53;;;;;;;23.80;13.77;;;20.90;99.90;;;22.58;71.44;97724.09;5023586;28;20053;-53
2023/08/17 04:54:21;;;;;;;21.45;14.38;;;20.90;99.90;;;22.61;71.25;97719.03;5033873;28;20046;-51
2023/08/17 04:56:49;;;;;;;20.05;13.20;;;21.00;99.90;;;22.65;71.56;97727.53;5032044;28;20417;-53
2023/08/17 04:59:16;;;;;;;19.73;13.20;;;21.10;99.90;;;22.68;71.13;97729.78;5040504;28;20622;-52
2023/08/17 05:01:44;;;;;;;21.48;13.80;;;21.10;99.90;;;22.70;71.32;97732.22;5039811;28;20402;-53
2023/08/17 05:04:12;;;;;;;22.48;13.88;;;21.20;99.90;;;22.74;71.20;97733.41;5031942;28;20046;-51
2023/08/17 05:06:39;;;;;;;22.88;13.65;;;21.20;99.90;;;22.77;70.94;97739.19;5040026;28;20046;-52
2023/08/17 05:09:07;;;;;;;19.88;13.70;;;21.20;99.90;;;22.80;71.04;97736.00;5031336;28;20045;-51
2023/08/17 05:11:35;;;;;;;20.95;14.13;;;21.20;99.90;;;22.83;71.03;97729.25;5031252;28;20053;-54
2023/08/17 05:14:03;;;;;;;19.95;12.85;;;21.30;99.90;;;22.82;70.75;97733.06;5031708;28;20041;-51
2023/08/17 05:16:31;;;;;;;22.00;14.18;;;21.20;99.90;;;22.83;70.88;97731.16;5040005;28;20053;-54
2023/08/17 05:18:59;;;;;;;19.83;13.00;;;21.20;99.90;;;22.84;70.86;97728.22;5030900;28;20076;-52
2023/08/17 05:21:28;;;;;;;23.92;13.98;;;21.20;99.90;;;22.81;70.44;97723.25;5031111;28;20125;-53
2023/08/17 05:23:56;;;;;;;21.15;13.82;;;21.10;99.90;;;22.79;70.34;97730.81;5031424;28;20053;-52
2023/08/17 05:26:24;;;;;;;22.63;13.45;;;21.10;99.90;;;22.79;70.56;97730.81;5031225;28;20424;-56
2023/08/17 05:28:51;;;;;;;20.95;12.48;;;21.10;99.90;;;22.78;70.37;97734.59;5030907;28;20060;-55
2023/08/17 05:31:19;;;;;;;17.83;13.07;;;21.20;99.90;;;22.80;70.69;97735.19;5038622;28;20064;-55
2023/08/17 05:33:49;;;;;;;19.52;13.02;;;21.20;99.90;;;22.81;70.62;97740.34;5024014;28;20046;-55
2023/08/17 05:36:18;;;;;;;18.98;12.80;;;21.20;99.90;;;22.81;70.62;97740.34;5022728;28;20045;-55
2023/08/17 05:38:47;;;;;;;18.50;11.82;;;21.30;99.90;;;22.85;70.48;97739.88;5031687;28;20066;-54
2023/08/17 05:41:16;;;;;;;17.77;13.00;;;21.30;99.90;;;22.87;70.35;97740.47;5030828;28;20045;-54
2023/08/17 05:43:44;;;;;;;19.17;13.30;;;21.40;99.90;;;22.90;70.20;97745.44;5031861;28;20509;-52
2023/08/17 05:46:12;;;;;;;20.98;13.63;;;21.40;99.90;;;22.91;70.42;97741.66;5033396;28;20064;-56
2023/08/17 05:48:41;;;;;;;18.27;12.68;;;21.40;99.90;;;22.93;70.26;97743.03;5039005;28;20049;-53
2023/08/17 05:51:08;;;;;;;17.77;13.27;;;21.40;99.90;;;22.93;70.29;97745.75;5032090;28;20516;-53
2023/08/17 05:53:36;;;;;;;20.20;12.63;;;21.50;99.90;;;22.97;70.34;97744.25;5032434;28;20443;-53
2023/08/17 05:56:03;;;;;;;17.77;11.93;;;21.50;99.90;;;23.01;70.14;97741.84;5032234;28;20505;-54
2023/08/17 05:58:31;;;;;;;16.05;12.95;;;21.50;99.90;;;23.04;70.09;97748.75;5032031;28;20497;-55
2023/08/17 06:01:09;;;;;;;19.33;13.52;;;21.50;99.90;;;23.06;70.14;97752.06;5032296;28;20046;-55
2023/08/17 06:03:38;;;;;;;17.88;13.52;;;21.50;99.90;;;23.07;69.88;97754.53;5030973;28;20052;-54
2023/08/17 06:06:06;;;;;;;19.10;13.82;;;21.50;99.90;;;23.07;69.70;97757.25;5032249;28;20428;-54
2023/08/17 06:08:33;;;;;;;17.95;14.07;;;21.40;99.90;;;23.06;69.33;97760.19;5031592;28;20117;-54
2023/08/17 06:11:01;;;;;;;20.98;14.75;;;21.40;99.90;;;23.04;69.28;97756.91;5031503;28;20076;-53
2023/08/17 06:13:29;;;;;;;20.02;14.18;;;21.40;99.90;;;23.02;69.18;97761.72;5031792;28;20057;-54
2023/08/17 06:15:57;;;;;;;19.67;12.90;;;21.40;99.90;;;23.05;69.31;97763.97;5031576;28;20513;-55
2023/08/17 06:18:25;;;;;;;20.98;15.23;;;21.40;99.90;;;23.08;69.21;97763.50;5032518;28;20045;-53
2023/08/17 06:20:53;;;;;;;22.65;15.25;;;21.50;99.90;;;23.09;68.94;97763.25;5032063;28;20068;-53
2023/08/17 06:23:21;;;;;;;19.88;13.57;;;21.50;99.90;;;23.10;68.96;97759.47;5030314;28;20045;-53
2023/08/17 06:25:49;;;;;;;18.33;14.77;;;21.50;99.90;;;23.13;68.86;97758.19;5031599;28;20060;-54
2023/08/17 06:28:16;;;;;;;20.98;16.00;;;21.50;99.90;;;23.15;68.82;97764.19;5031824;28;20501;-53
2023/08/17 06:30:44;;;;;;;16.00;13.50;;;21.50;99.90;;;23.17;68.89;97771.03;5031300;28;20429;-53
2023/08/17 06:33:12;;;;;;;23.30;14.80;;;21.50;99.90;;;23.19;68.71;97768.09;5030525;28;20053;-53
2023/08/17 06:35:39;;;;;;;18.75;14.57;;;21.60;99.90;;;23.23;68.64;97771.16;5031656;28;20041;-60
2023/08/17 06:38:08;;;;;;;19.50;14.68;;;21.60;99.90;;;23.24;68.43;97762.75;5032090;28;20044;-61
2023/08/17 06:40:36;;;;;;;18.23;13.30;;;21.60;99.90;;;23.26;68.48;97755.19;5031405;28;20045;-61
2023/08/17 06:43:04;;;;;;;19.17;13.88;;;21.70;99.90;;;23.29;68.31;97751.19;5031638;28;20040;-61
2023/08/17 06:45:32;;;;;;;17.30;13.70;;;21.70;99.90;;;23.28;68.42;97752.22;5030829;28;20493;-61
2023/08/17 06:48:00;;;;;;;18.48;13.35;;;21.70;99.90;;;23.22;68.50;97745.88;5029850;28;20436;-61
2023/08/17 06:50:28;;;;;;;16.75;13.57;;;21.80;99.90;;;23.23;68.32;97755.66;5031091;28;20042;-61
2023/08/17 06:52:55;;;;;;;16.25;12.07;;;21.70;99.90;;;23.27;68.27;97758.75;5031579;28;20033;-61
2023/08/17 06:55:23;;;;;;;14.50;11.65;;;21.80;99.90;;;23.27;68.13;97764.16;5031525;28;20508;-61
2023/08/17 06:57:51;;;;;;;16.50;12.52;;;21.80;99.90;;;23.31;68.01;97752.56;5031610;28;20042;-61
2023/08/17 07:00:20;;;;;;;15.27;12.73;;;21.90;99.90;;;23.30;67.57;97755.53;5030871;28;20065;-61
2023/08/17 07:02:49;;;;;;;15.77;11.40;;;21.80;99.90;;;23.30;67.58;97756.38;5030009;28;20053;-61
2023/08/17 07:05:23;;;;;;;17.95;13.70;;;21.80;99.90;;;23.33;67.67;97760.50;5031038;28;20052;-61
2023/08/17 07:07:52;;;;;;;20.15;14.63;;;21.70;99.90;;;23.37;67.63;97754.31;5030698;28;20042;-61
2023/08/17 07:10:20;;;;;;;18.42;14.57;;;21.80;99.90;;;23.42;67.49;97772.63;5030770;28;20501;-61
2023/08/17 07:12:48;;;;;;;17.13;12.55;;;21.80;99.90;;;23.44;67.24;97765.06;5031332;28;20038;-61
2023/08/17 07:15:15;;;;;;;17.70;13.70;;;21.80;99.90;;;23.45;67.27;97772.13;5031113;28;20481;-61
2023/08/17 07:17:43;;;;;;;16.92;13.23;;;21.80;99.90;;;23.46;67.25;97771.09;5031526;28;20041;-61
2023/08/17 07:20:11;;;;;;;19.35;13.70;;;21.80;99.90;;;23.48;67.17;97773.56;5030714;28;20424;-61
2023/08/17 07:22:44;;;;;;;20.27;13.25;;;21.80;99.90;;;23.50;67.08;97771.44;5031519;28;20037;-61
2023/08/17 07:25:11;;;;;;;16.70;14.00;;;21.80;99.90;;;23.50;67.02;97771.44;5031152;28;20048;-61
2023/08/17 07:27:39;;;;;;;17.35;13.35;;;21.80;99.90;;;23.53;67.13;97777.19;5031275;28;20045;-61
2023/08/17 07:30:07;;;;;;;18.35;14.90;;;21.90;99.90;;;23.57;67.12;97780.25;5030714;28;20046;-62
2023/08/17 07:32:35;;;;;;;16.13;12.25;;;21.90;99.90;;;23.58;67.01;97779.19;5030701;28;20041;-62
2023/08/17 07:35:03;;;;;;;16.25;13.07;;;21.90;99.90;;;23.61;67.01;97786.84;5031132;28;20049;-62
2023/08/17 07:37:33;;;;;;;18.52;12.77;;;22.00;99.90;;;23.62;66.71;97779.53;5031043;28;20034;-62
2023/08/17 07:40:03;;;;;;;15.43;12.27;;;22.10;99.90;;;23.65;66.73;97774.44;5030932;28;20045;-62
2023/08/17 07:42:31;;;;;;;16.27;13.57;;;22.10;99.90;;;23.70;66.89;97773.72;5023152;28;20116;-62
2023/08/17 07:45:00;;;;;;;18.13;13.88;;;22.10;99.90;;;23.75;66.84;97777.34;5031133;28;20419;-62
2023/08/17 07:47:28;;;;;;;15.77;12.85;;;22.30;99.90;;;23.80;66.58;97775.81;5023293;28;20046;-62
2023/08/17 07:49:57;;;;;;;17.27;13.43;;;22.30;99.90;;;23.81;66.65;97778.31;5031274;28;20065;-62
2023/08/17 07:52:25;;;;;;;18.85;13.85;;;22.30;99.90;;;23.89;66.71;97774.38;5030588;28;20060;-62
2023/08/17 07:54:53;;;;;;;18.15;13.73;;;22.40;99.90;;;23.94;66.62;97771.72;5030913;28;20053;-62
2023/08/17 07:57:21;;;;;;;15.13;12.27;;;22.40;99.90;;;24.01;66.41;97771.59;5030723;28;20062;-62
2023/08/17 07:59:53;;;;;;;16.50;13.00;;;22.60;99.90;;;24.07;66.30;97773.31;5032469;28;20052;-63
2023/08/17 08:02:21;;;;;;;16.65;14.70;;;22.60;99.90;;;24.11;65.70;97774.47;5034175;28;20045;-62
2023/08/17 08:04:49;;;;;;;15.57;12.85;;;22.60;99.90;;;24.14;65.64;97763.13;5033303;28;20045;-62
2023/08/17 08:07:16;;;;;;;17.05;13.05;;;22.70;99.90;;;24.20;65.65;97773.00;5034299;28;20048;-62
2023/08/17 08:09:44;;;;;;;20.98;14.80;;;22.80;99.90;;;24.22;65.35;97768.16;5034174;28;20061;-62
2023/08/17 08:12:12;;;;;;;19.35;14.38;;;22.90;99.90;;;24.23;65.27;97760.81;5034027;28;20037;-62
2023/08/17 08:14:39;;;;;;;15.30;13.43;;;22.80;99.90;;;24.22;65.09;97756.44;5034553;28;20042;-62
2023/08/17 08:17:07;;;;;;;16.48;12.55;;;22.70;99.90;;;24.23;65.07;97758.91;5034048;28;20245;-62
2023/08/17 08:19:35;;;;;;;15.88;12.98;;;22.80;99.90;;;24.22;65.01;97762.72;5034393;28;20041;-62
2023/08/17 08:22:03;;;;;;;18.17;14.45;;;22.80;99.90;;;24.18;64.84;97759.66;5034233;28;20049;-62
2023/08/17 08:24:33;;;;;;;19.48;14.55;;;22.80;99.90;;;24.16;64.31;97756.34;5034174;28;20052;-62
2023/08/17 08:27:05;;;;;;;21.42;15.27;;;22.60;99.90;;;24.10;64.05;97751.91;5034220;28;20409;-62
2023/08/17 08:29:33;;;;;;;18.17;13.70;;;22.50;99.90;;;24.07;64.37;97757.00;5034026;28;20493;-56
2023/08/17 08:32:02;;;;;;;15.88;12.65;;;22.50;99.90;;;24.05;64.64;97759.16;5033241;28;20061;-56
2023/08/17 08:34:30;;;;;;;16.48;13.10;;;22.50;99.90;;;24.04;64.87;97749.31;5034102;28;20048;-55
2023/08/17 08:36:57;;;;;;;15.15;13.20;;;22.50;99.90;;;24.08;65.04;97761.34;5032763;28;20044;-54
2023/08/17 08:39:26;;;;;;;14.75;12.77;;;22.60;99.90;;;24.08;65.33;97754.06;5033814;28;20057;-53
2023/08/17 08:41:55;;;;;;;14.27;11.73;;;22.70;99.90;;;24.13;65.36;97753.31;5034029;28;20045;-59
2023/08/17 08:44:23;;;;;;;15.18;13.07;;;22.80;99.90;;;24.17;65.36;97758.03;5033764;28;20417;-62
2023/08/17 08:46:53;;;;;;;16.58;13.55;;;22.90;99.90;;;24.18;65.11;97745.25;5032379;28;20049;-62
2023/08/17 08:49:24;;;;;;;13.68;11.50;;;22.90;99.90;;;24.20;64.66;97755.88;5032392;28;20060;-62
2023/08/17 08:51:52;;;;;;;16.65;13.00;;;22.80;99.90;;;24.23;64.97;97753.47;5040394;28;20060;-62
2023/08/17 08:54:23;;;;;;;15.18;12.13;;;22.80;99.90;;;24.27;64.95;97757.38;5033569;28;20054;-62
2023/08/17 08:56:58;;;;;;;18.85;14.45;;;22.90;99.90;;;24.31;64.64;97758.50;5033707;28;20033;-62
2023/08/17 08:59:28;;;;;;;15.90;11.77;;;23.00;99.90;;;24.33;64.97;97752.81;5033126;28;20056;-62
2023/08/17 09:01:57;;;;;;;13.10;11.70;;;23.00;99.90;;;24.35;64.90;97759.66;5032264;28;20405;-62
2023/08/17 09:04:26;;;;;;;21.13;11.98;;;23.00;99.90;;;24.40;65.04;97747.22;5032288;28;20045;-62
2023/08/17 09:06:55;;;;;;;15.20;11.63;;;23.10;99.90;;;24.44;65.28;97749.19;5033623;28;20040;-63
2023/08/17 09:09:23;;;;;;;14.93;11.60;;;23.20;99.90;;;24.48;65.06;97750.31;5031618;28;20053;-62
2023/08/17 09:11:57;;;;;;;12.93;10.27;;;23.20;99.90;;;24.50;64.89;97753.63;5031673;28;20057;-62
2023/08/17 09:14:24;;;;;;;15.60;10.85;;;23.20;99.90;;;24.54;64.84;97745.81;5040234;28;20044;-62
2023/08/17 09:16:52;;;;;;;16.10;12.60;;;23.30;99.90;;;24.60;65.22;97744.00;5033120;28;20041;-62
2023/08/17 09:19:20;;;;;;;16.38;11.23;;;23.40;99.90;;;24.63;65.24;97744.34;5032794;28;20412;-62
2023/08/17 09:21:47;;;;;;;15.48;11.38;;;23.40;99.90;;;24.69;64.81;97753.41;5032484;28;20041;-62
2023/08/17 09:24:18;;;;;;;18.25;13.93;;;23.50;99.90;;;24.72;65.33;97747.47;5032996;28;20421;-62
2023/08/17 09:26:45;;;;;;;16.52;14.30;;;23.60;99.90;;;24.75;65.32;97745.03;5032147;28;20055;-62
2023/08/17 09:29:20;;;;;;;17.02;13.82;;;23.60;99.90;;;24.80;65.59;97749.75;5032569;28;20490;-62
2023/08/17 09:31:48;;;;;;;15.45;13.40;;;23.70;99.90;;;24.86;65.49;97747.94;5023722;28;20041;-62
2023/08/17 09:34:16;;;;;;;14.40;12.48;;;23.80;99.90;;;24.91;65.21;97751.56;5032886;28;20044;-62
2023/08/17 09:36:47;;;;;;;14.75;11.07;;;23.80;99.90;;;25.00;65.05;97756.56;5040016;28;20044;-62
2023/08/17 09:39:20;;;;;;;15.43;12.48;;;24.00;99.90;;;25.08;64.88;97746.03;5031458;28;20489;-62
2023/08/17 09:41:48;;;;;;;;;;;24.00;99.90;;;25.08;64.25;97743.31;5024901;28;20058;-62
2023/08/17 09:44:16;;;;;;;13.02;11.60;;;24.00;99.90;;;25.14;63.83;97741.50;5031542;28;19921;-62
2023/08/17 09:46:44;;;;;;;13.57;11.30;;;24.00;99.90;;;25.23;64.36;97748.19;5031453;28;20044;-62
2023/08/17 09:49:12;;;;;;;13.07;11.63;;;24.10;99.90;;;25.32;63.97;97743.94;5032340;28;20057;-54
2023/08/17 09:51:43;;;;;;;17.58;13.35;;;24.30;99.90;;;25.41;64.32;97749.75;5032152;28;20037;-53
2023/08/17 09:54:22;;;;;;;17.15;12.32;;;24.40;99.90;;;25.52;64.17;97748.78;5031435;28;20045;-56
2023/08/17 09:56:51;;;;;;;16.48;11.55;;;24.50;99.90;;;25.64;64.09;97747.84;5025566;28;20045;-55
2023/08/17 09:59:20;;;;;;;13.43;11.85;;;24.70;99.90;;;25.72;63.65;97739.19;5047310;28;20053;-56
2023/08/17 10:01:50;;;;;;;15.15;12.18;;;24.80;99.90;;;25.80;63.46;97738.72;5031100;28;20041;-54
2023/08/17 10:04:22;;;;;;;18.83;14.50;;;24.90;99.90;;;25.86;63.18;97735.00;5032225;28;20099;-54
2023/08/17 10:07:00;;;;;;;17.35;15.07;;;24.90;99.90;;;25.92;63.06;97733.16;5032174;28;20045;-53
2023/08/17 10:09:39;;;;;;;17.55;13.30;;;24.90;99.90;;;25.96;62.99;97728.00;5031890;28;20053;-53
2023/08/17 10:12:13;;;;;;;16.77;14.05;;;24.90;99.90;;;25.95;63.24;97720.91;5038925;28;20041;-56
2023/08/17 10:14:55;;;;;;;16.70;14.90;;;24.90;99.90;;;25.96;62.69;97722.53;5030673;28;20048;-55
2023/08/17 10:17:27;;;;;;;20.45;15.93;;;24.80;99.90;;;25.96;62.94;97720.66;5030215;28;20415;-54